Terminal Aerodrome Forecast
Issued by NWS Wilmington, OH

Current Version | Previous Version | Text Only | Print | Product List | Glossary Off
Versions: 1 2 3 4 5 6 7 8 9 10 11 12 13 14 15 16 17 18 19 20 21 22 23

120
FTUS41 KILN 241736
TAFDAY
TAF
KDAY 241736Z 2418/2518 04008KT P6SM SCT015 BKN019
     FM250000 07005KT P6SM SCT250
     FM251400 08005KT P6SM FEW035 SCT050=

USA.gov is the U.S. government's official web portal to all federal, state and local government web resources and services.